Time,TemperatureF,DewpointF,PressureIn,WindDirection,WindDirectionDegrees,WindSpeedMPH,WindSpeedGustMPH,Humidity,HourlyPrecipIn,Conditions,Clouds,dailyrainin,SoftwareType,DateUTC
2013-03-08 00:00:00,24.4,20.3,30.05,ESE,112,5.3,-999.0,84,-99.99,,,0.00,Acu-Link.com,2013-03-08 05:00:00,
2013-03-08 00:15:00,24.4,20.3,30.06,ESE,112,3.7,-999.0,84,-99.99,,,0.00,Acu-Link.com,2013-03-08 05:15:00,
2013-03-08 00:30:00,24.4,20.3,30.06,ESE,112,4.7,-999.0,84,-99.99,,,0.00,Acu-Link.com,2013-03-08 05:30:00,
2013-03-08 00:45:00,24.4,20.3,30.06,ESE,112,1.1,-999.0,84,-99.99,,,0.00,Acu-Link.com,2013-03-08 05:45:00,
2013-03-08 01:01:00,24.3,20.5,30.05,West,270,0.0,-999.0,85,-99.99,,,0.00,Acu-Link.com,2013-03-08 06:01:00,
2013-03-08 01:16:00,24.3,20.5,30.06,North,0,1.1,-999.0,85,-99.99,,,0.00,Acu-Link.com,2013-03-08 06:16:00,
2013-03-08 01:31:00,24.1,20.3,30.06,WSW,247,1.1,-999.0,85,-99.99,,,0.00,Acu-Link.com,2013-03-08 06:31:00,
2013-03-08 01:46:00,24.3,20.5,30.05,NE,45,2.2,-999.0,85,-99.99,,,0.00,Acu-Link.com,2013-03-08 06:46:00,
2013-03-08 02:02:00,24.3,20.5,30.05,SSE,157,2.2,-999.0,85,-99.99,,,0.00,Acu-Link.com,2013-03-08 07:02:00,
2013-03-08 02:17:00,24.4,20.6,30.05,ENE,67,1.7,-999.0,85,-99.99,,,0.00,Acu-Link.com,2013-03-08 07:17:00,
2013-03-08 02:32:00,24.8,20.4,30.05,NE,45,4.2,-999.0,83,-99.99,,,0.00,Acu-Link.com,2013-03-08 07:32:00,
2013-03-08 02:47:00,24.8,20.4,30.05,SSE,157,3.2,-999.0,83,-99.99,,,0.00,Acu-Link.com,2013-03-08 07:47:00,
2013-03-08 03:02:00,24.8,20.4,30.04,ENE,67,2.7,-999.0,83,-99.99,,,0.00,Acu-Link.com,2013-03-08 08:02:00,
2013-03-08 03:18:00,24.8,20.4,30.04,SSW,202,2.2,-999.0,83,-99.99,,,0.00,Acu-Link.com,2013-03-08 08:18:00,
2013-03-08 03:33:00,24.8,20.4,30.04,ESE,112,4.2,-999.0,83,-99.99,,,0.00,Acu-Link.com,2013-03-08 08:33:00,
2013-03-08 03:48:00,24.8,20.1,30.04,SE,135,3.2,-999.0,82,-99.99,,,0.00,Acu-Link.com,2013-03-08 08:48:00,
2013-03-08 04:04:00,24.6,20.2,30.04,ESE,112,2.7,-999.0,83,-99.99,,,0.00,Acu-Link.com,2013-03-08 09:04:00,
2013-03-08 04:19:00,24.4,20.3,30.05,ENE,67,1.7,-999.0,84,-99.99,,,0.00,Acu-Link.com,2013-03-08 09:19:00,
2013-03-08 04:34:00,24.3,20.2,30.04,ESE,112,3.2,-999.0,84,-99.99,,,0.00,Acu-Link.com,2013-03-08 09:34:00,
2013-03-08 04:49:00,24.3,20.2,30.05,ENE,67,1.7,-999.0,84,-99.99,,,0.00,Acu-Link.com,2013-03-08 09:49:00,
2013-03-08 05:04:00,24.3,20.2,30.05,ESE,112,0.0,-999.0,84,-99.99,,,0.00,Acu-Link.com,2013-03-08 10:04:00,
2013-03-08 05:20:00,24.1,20.3,30.05,ESE,112,0.0,-999.0,85,-99.99,,,0.00,Acu-Link.com,2013-03-08 10:20:00,
2013-03-08 05:35:00,23.9,20.3,30.06,NNE,22,0.0,-999.0,86,-99.99,,,0.00,Acu-Link.com,2013-03-08 10:35:00,
2013-03-08 05:50:00,23.7,20.1,30.06,NNE,22,0.0,-999.0,86,-99.99,,,0.00,Acu-Link.com,2013-03-08 10:50:00,
2013-03-08 06:05:00,23.5,20.2,30.05,NE,45,0.0,-999.0,87,-99.99,,,0.00,Acu-Link.com,2013-03-08 11:05:00,
2013-03-08 06:20:00,23.5,19.9,30.06,NE,45,0.0,-999.0,86,-99.99,,,0.00,Acu-Link.com,2013-03-08 11:20:00,
2013-03-08 06:36:00,23.5,19.9,30.07,ESE,112,1.7,-999.0,86,-99.99,,,0.00,Acu-Link.com,2013-03-08 11:36:00,
2013-03-08 06:51:00,23.9,20.3,30.07,NNW,337,0.0,-999.0,86,-99.99,,,0.00,Acu-Link.com,2013-03-08 11:51:00,
2013-03-08 07:06:00,24.1,20.3,30.08,North,0,1.1,-999.0,85,-99.99,,,0.00,Acu-Link.com,2013-03-08 12:06:00,
2013-03-08 07:21:00,24.6,20.5,30.08,NNE,22,0.0,-999.0,84,-99.99,,,0.00,Acu-Link.com,2013-03-08 12:21:00,
2013-03-08 07:36:00,25.2,20.8,30.07,West,270,2.2,-999.0,83,-99.99,,,0.00,Acu-Link.com,2013-03-08 12:36:00,
2013-03-08 07:52:00,25.9,20.6,30.08,West,270,2.7,-999.0,80,-99.99,,,0.00,Acu-Link.com,2013-03-08 12:52:00,
2013-03-08 08:07:00,27.0,21.4,30.08,WNW,292,1.1,-999.0,79,-99.99,,,0.00,Acu-Link.com,2013-03-08 13:07:00,
2013-03-08 08:22:00,28.6,21.7,30.09,West,270,2.7,-999.0,75,-99.99,,,0.00,Acu-Link.com,2013-03-08 13:22:00,
2013-03-08 08:37:00,29.1,21.2,30.09,WSW,247,2.7,-999.0,72,-99.99,,,0.00,Acu-Link.com,2013-03-08 13:37:00,
2013-03-08 08:52:00,30.6,19.5,30.08,East,90,6.3,-999.0,63,-99.99,,,0.00,Acu-Link.com,2013-03-08 13:52:00,
2013-03-08 09:08:00,31.3,19.0,30.09,SSE,157,7.8,-999.0,60,-99.99,,,0.00,Acu-Link.com,2013-03-08 14:08:00,
2013-03-08 09:23:00,31.6,18.9,30.10,East,90,2.7,-999.0,59,-99.99,,,0.00,Acu-Link.com,2013-03-08 14:23:00,
2013-03-08 09:38:00,33.3,19.7,30.10,West,270,3.7,-999.0,57,-99.99,,,0.00,Acu-Link.com,2013-03-08 14:38:00,
2013-03-08 09:53:00,34.2,19.7,30.10,NNE,22,2.7,-999.0,55,-99.99,,,0.00,Acu-Link.com,2013-03-08 14:53:00,
2013-03-08 10:09:00,36.3,19.5,30.10,ENE,67,3.7,-999.0,50,-99.99,,,0.00,Acu-Link.com,2013-03-08 15:09:00,
2013-03-08 10:24:00,37.6,19.2,30.10,ESE,112,6.3,-999.0,47,-99.99,,,0.00,Acu-Link.com,2013-03-08 15:24:00,
2013-03-08 10:39:00,39.0,19.0,30.10,NE,45,6.3,-999.0,44,-99.99,,,0.00,Acu-Link.com,2013-03-08 15:39:00,
2013-03-08 10:54:00,41.0,18.6,30.10,East,90,8.3,-999.0,40,-99.99,,,0.00,Acu-Link.com,2013-03-08 15:54:00,
2013-03-08 11:09:00,43.7,19.8,30.11,ESE,112,6.3,-999.0,38,-99.99,,,0.00,Acu-Link.com,2013-03-08 16:09:00,
2013-03-08 11:25:00,44.6,19.3,30.11,East,90,6.3,-999.0,36,-99.99,,,0.00,Acu-Link.com,2013-03-08 16:25:00,
2013-03-08 11:40:00,42.3,18.5,30.11,East,90,6.3,-999.0,38,-99.99,,,0.00,Acu-Link.com,2013-03-08 16:40:00,
2013-03-08 11:55:00,43.0,19.8,30.11,East,90,5.3,-999.0,39,-99.99,,,0.00,Acu-Link.com,2013-03-08 16:55:00,
2013-03-08 12:11:00,42.8,19.6,30.11,ESE,112,8.3,-999.0,39,-99.99,,,0.00,Acu-Link.com,2013-03-08 17:11:00,
2013-03-08 12:26:00,43.0,19.2,30.11,SE,135,5.8,-999.0,38,-99.99,,,0.01,Acu-Link.com,2013-03-08 17:26:00,
2013-03-08 12:41:00,42.6,18.8,30.11,ESE,112,5.8,-999.0,38,-99.99,,,0.01,Acu-Link.com,2013-03-08 17:41:00,
2013-03-08 12:56:00,42.4,19.2,30.10,East,90,9.4,-999.0,39,-99.99,,,0.01,Acu-Link.com,2013-03-08 17:56:00,
2013-03-08 13:11:00,42.8,19.6,30.10,ESE,112,5.8,-999.0,39,-99.99,,,0.02,Acu-Link.com,2013-03-08 18:11:00,
2013-03-08 13:27:00,42.3,20.3,30.10,East,90,8.9,-999.0,41,-99.99,,,0.02,Acu-Link.com,2013-03-08 18:27:00,
2013-03-08 13:42:00,41.9,19.9,30.10,ESE,112,8.9,-999.0,41,-99.99,,,0.03,Acu-Link.com,2013-03-08 18:42:00,
2013-03-08 13:57:00,42.4,19.8,30.11,ESE,112,5.3,-999.0,40,-99.99,,,0.03,Acu-Link.com,2013-03-08 18:57:00,
2013-03-08 14:12:00,42.6,19.4,30.12,NE,45,4.7,-999.0,39,-99.99,,,0.03,Acu-Link.com,2013-03-08 19:12:00,
2013-03-08 14:27:00,43.3,21.8,30.11,SSE,157,1.1,-999.0,42,-99.99,,,0.04,Acu-Link.com,2013-03-08 19:27:00,
2013-03-08 14:43:00,43.5,21.4,30.12,SE,135,3.2,-999.0,41,-99.99,,,0.04,Acu-Link.com,2013-03-08 19:43:00,
2013-03-08 14:58:00,45.3,21.8,30.12,North,0,2.2,-999.0,39,-99.99,,,0.05,Acu-Link.com,2013-03-08 19:58:00,
2013-03-08 15:13:00,43.9,20.6,30.12,ESE,112,6.3,-999.0,39,-99.99,,,0.05,Acu-Link.com,2013-03-08 20:13:00,
2013-03-08 15:28:00,43.2,19.9,30.12,ESE,112,6.3,-999.0,39,-99.99,,,0.05,Acu-Link.com,2013-03-08 20:28:00,
2013-03-08 15:44:00,43.7,21.0,30.12,SSE,157,3.7,-999.0,40,-99.99,,,0.05,Acu-Link.com,2013-03-08 20:44:00,
2013-03-08 15:59:00,43.0,22.6,30.12,ESE,112,1.7,-999.0,44,-99.99,,,0.06,Acu-Link.com,2013-03-08 20:59:00,
2013-03-08 16:15:00,41.4,23.2,30.13,ESE,112,2.7,-999.0,48,-99.99,,,0.06,Acu-Link.com,2013-03-08 21:15:00,
2013-03-08 16:30:00,40.8,23.1,30.13,SSE,157,5.3,-999.0,49,-99.99,,,0.06,Acu-Link.com,2013-03-08 21:30:00,
2013-03-08 16:45:00,40.5,22.4,30.14,ESE,112,5.3,-999.0,48,-99.99,,,0.06,Acu-Link.com,2013-03-08 21:45:00,
2013-03-08 17:00:00,39.0,22.0,30.14,SSE,157,3.7,-999.0,50,-99.99,,,0.06,Acu-Link.com,2013-03-08 22:00:00,
2013-03-08 17:16:00,37.9,21.9,30.15,ESE,112,2.7,-999.0,52,-99.99,,,0.06,Acu-Link.com,2013-03-08 22:16:00,
2013-03-08 17:31:00,36.5,22.3,30.15,WSW,247,0.0,-999.0,56,-99.99,,,0.06,Acu-Link.com,2013-03-08 22:31:00,
2013-03-08 17:46:00,34.9,21.6,30.15,NNW,337,2.2,-999.0,58,-99.99,,,0.06,Acu-Link.com,2013-03-08 22:46:00,
2013-03-08 18:01:00,33.3,22.1,30.16,North,0,0.0,-999.0,63,-99.99,,,0.06,Acu-Link.com,2013-03-08 23:01:00,
2013-03-08 18:17:00,32.0,21.2,30.16,NE,45,0.0,-999.0,64,-99.99,,,0.06,Acu-Link.com,2013-03-08 23:17:00,
2013-03-08 18:32:00,31.6,21.2,30.17,East,90,0.0,-999.0,65,-99.99,,,0.06,Acu-Link.com,2013-03-08 23:32:00,
2013-03-08 18:47:00,30.9,20.5,30.18,NE,45,2.7,-999.0,65,-99.99,,,0.06,Acu-Link.com,2013-03-08 23:47:00,
2013-03-08 19:02:00,30.0,21.4,30.18,NNE,22,0.0,-999.0,70,-99.99,,,0.06,Acu-Link.com,2013-03-09 00:02:00,
2013-03-08 19:17:00,28.8,21.6,30.19,North,0,0.0,-999.0,74,-99.99,,,0.06,Acu-Link.com,2013-03-09 00:17:00,
2013-03-08 19:33:00,28.4,21.5,30.19,NE,45,1.7,-999.0,75,-99.99,,,0.06,Acu-Link.com,2013-03-09 00:33:00,
2013-03-08 19:48:00,27.7,21.8,30.19,NNE,22,1.1,-999.0,78,-99.99,,,0.06,Acu-Link.com,2013-03-09 00:48:00,
2013-03-08 20:03:00,26.2,20.9,30.19,WSW,247,0.0,-999.0,80,-99.99,,,0.06,Acu-Link.com,2013-03-09 01:03:00,
2013-03-08 20:18:00,25.5,21.6,30.19,ESE,112,1.7,-999.0,85,-99.99,,,0.06,Acu-Link.com,2013-03-09 01:18:00,
2013-03-08 20:33:00,25.2,20.8,30.20,NE,45,0.0,-999.0,83,-99.99,,,0.06,Acu-Link.com,2013-03-09 01:33:00,
2013-03-08 20:49:00,23.9,20.3,30.21,ESE,112,0.0,-999.0,86,-99.99,,,0.06,Acu-Link.com,2013-03-09 01:49:00,
2013-03-08 21:04:00,23.5,20.2,30.20,West,270,0.0,-999.0,87,-99.99,,,0.06,Acu-Link.com,2013-03-09 02:04:00,
2013-03-08 21:19:00,23.4,20.6,30.21,SE,135,0.0,-999.0,89,-99.99,,,0.06,Acu-Link.com,2013-03-09 02:19:00,
2013-03-08 21:35:00,22.8,20.3,30.21,NNW,337,0.0,-999.0,90,-99.99,,,0.06,Acu-Link.com,2013-03-09 02:35:00,
2013-03-08 21:50:00,22.3,20.3,30.21,East,90,1.1,-999.0,92,-99.99,,,0.06,Acu-Link.com,2013-03-09 02:50:00,
2013-03-08 22:05:00,22.1,20.1,30.21,NW,315,0.0,-999.0,92,-99.99,,,0.06,Acu-Link.com,2013-03-09 03:05:00,
2013-03-08 22:20:00,21.6,19.9,30.21,SSE,157,0.0,-999.0,93,-99.99,,,0.06,Acu-Link.com,2013-03-09 03:20:00,
2013-03-08 22:35:00,21.2,19.0,30.21,East,90,0.0,-999.0,91,-99.99,,,0.06,Acu-Link.com,2013-03-09 03:35:00,
2013-03-08 22:51:00,20.8,19.1,30.20,West,270,2.2,-999.0,93,-99.99,,,0.06,Acu-Link.com,2013-03-09 03:51:00,
2013-03-08 23:06:00,20.5,19.1,30.20,NNE,22,1.7,-999.0,94,-99.99,,,0.06,Acu-Link.com,2013-03-09 04:06:00,
2013-03-08 23:21:00,19.4,17.5,30.21,NNE,22,0.0,-999.0,92,-99.99,,,0.06,Acu-Link.com,2013-03-09 04:21:00,
2013-03-08 23:36:00,18.7,17.3,30.19,WNW,292,1.7,-999.0,94,-99.99,,,0.06,Acu-Link.com,2013-03-09 04:36:00,
2013-03-08 23:51:00,18.3,17.6,30.20,NW,315,0.0,-999.0,97,-99.99,,,0.06,Acu-Link.com,2013-03-09 04:51:00,